sensor_id;sensor_type;location;lat;lon;timestamp;P1;durP1;ratioP1;P2;durP2;ratioP2
57565;SDS011;63999;43.882;-0.310;2023-08-08T00:00:37;2.55;;;0.90;;
57565;SDS011;63999;43.882;-0.310;2023-08-08T00:03:03;1.20;;;0.65;;
57565;SDS011;63999;43.882;-0.310;2023-08-08T00:05:30;3.33;;;0.73;;
57565;SDS011;63999;43.882;-0.310;2023-08-08T00:07:58;2.28;;;0.60;;
57565;SDS011;63999;43.882;-0.310;2023-08-08T00:10:24;2.33;;;0.85;;
57565;SDS011;63999;43.882;-0.310;2023-08-08T00:12:52;2.67;;;0.80;;
57565;SDS011;63999;43.882;-0.310;2023-08-08T00:15:20;1.73;;;0.73;;
57565;SDS011;63999;43.882;-0.310;2023-08-08T00:17:46;1.70;;;0.77;;
57565;SDS011;63999;43.882;-0.310;2023-08-08T00:20:12;7.55;;;0.93;;
57565;SDS011;63999;43.882;-0.310;2023-08-08T00:22:38;1.60;;;0.70;;
57565;SDS011;63999;43.882;-0.310;2023-08-08T00:25:06;1.73;;;0.75;;
57565;SDS011;63999;43.882;-0.310;2023-08-08T00:27:32;0.90;;;0.57;;
57565;SDS011;63999;43.882;-0.310;2023-08-08T00:29:58;1.50;;;0.80;;
57565;SDS011;63999;43.882;-0.310;2023-08-08T00:32:25;2.30;;;1.08;;
57565;SDS011;63999;43.882;-0.310;2023-08-08T00:34:50;1.90;;;0.70;;
57565;SDS011;63999;43.882;-0.310;2023-08-08T00:37:18;3.45;;;0.85;;
57565;SDS011;63999;43.882;-0.310;2023-08-08T00:39:44;3.60;;;0.90;;
57565;SDS011;63999;43.882;-0.310;2023-08-08T00:42:12;1.33;;;0.73;;
57565;SDS011;63999;43.882;-0.310;2023-08-08T00:44:38;2.90;;;0.70;;
57565;SDS011;63999;43.882;-0.310;2023-08-08T00:47:06;4.25;;;1.00;;
57565;SDS011;63999;43.882;-0.310;2023-08-08T00:49:35;1.58;;;1.08;;
57565;SDS011;63999;43.882;-0.310;2023-08-08T00:52:04;1.27;;;0.70;;
57565;SDS011;63999;43.882;-0.310;2023-08-08T00:54:31;1.75;;;0.70;;
57565;SDS011;63999;43.882;-0.310;2023-08-08T00:56:57;0.88;;;0.50;;
57565;SDS011;63999;43.882;-0.310;2023-08-08T00:59:23;1.35;;;0.57;;
57565;SDS011;63999;43.882;-0.310;2023-08-08T01:01:49;0.70;;;0.47;;
57565;SDS011;63999;43.882;-0.310;2023-08-08T01:04:15;1.70;;;0.80;;
57565;SDS011;63999;43.882;-0.310;2023-08-08T01:11:46;1.95;;;0.70;;
57565;SDS011;63999;43.882;-0.310;2023-08-08T01:14:14;1.70;;;0.80;;
57565;SDS011;63999;43.882;-0.310;2023-08-08T01:16:44;2.17;;;0.80;;
57565;SDS011;63999;43.882;-0.310;2023-08-08T01:19:15;3.45;;;0.95;;
57565;SDS011;63999;43.882;-0.310;2023-08-08T01:21:52;1.77;;;0.80;;
57565;SDS011;63999;43.882;-0.310;2023-08-08T01:24:24;1.83;;;0.70;;
57565;SDS011;63999;43.882;-0.310;2023-08-08T01:26:52;2.53;;;0.80;;
57565;SDS011;63999;43.882;-0.310;2023-08-08T01:29:18;0.95;;;0.70;;
57565;SDS011;63999;43.882;-0.310;2023-08-08T01:31:47;3.70;;;0.90;;
57565;SDS011;63999;43.882;-0.310;2023-08-08T01:34:13;1.30;;;0.68;;
57565;SDS011;63999;43.882;-0.310;2023-08-08T01:36:44;2.50;;;0.88;;
57565;SDS011;63999;43.882;-0.310;2023-08-08T01:39:20;2.78;;;1.10;;
57565;SDS011;63999;43.882;-0.310;2023-08-08T01:41:54;2.05;;;0.80;;
57565;SDS011;63999;43.882;-0.310;2023-08-08T01:44:20;1.95;;;0.77;;
57565;SDS011;63999;43.882;-0.310;2023-08-08T01:46:51;3.08;;;0.93;;
57565;SDS011;63999;43.882;-0.310;2023-08-08T01:49:18;2.42;;;0.90;;
57565;SDS011;63999;43.882;-0.310;2023-08-08T01:51:44;1.05;;;0.80;;
57565;SDS011;63999;43.882;-0.310;2023-08-08T01:54:10;1.65;;;0.70;;
57565;SDS011;63999;43.882;-0.310;2023-08-08T01:56:35;2.25;;;0.73;;
57565;SDS011;63999;43.882;-0.310;2023-08-08T01:59:01;1.45;;;0.77;;
57565;SDS011;63999;43.882;-0.310;2023-08-08T02:01:27;2.38;;;0.90;;
57565;SDS011;63999;43.882;-0.310;2023-08-08T02:03:53;3.58;;;0.90;;
57565;SDS011;63999;43.882;-0.310;2023-08-08T02:06:18;2.38;;;0.63;;
57565;SDS011;63999;43.882;-0.310;2023-08-08T02:08:47;3.75;;;0.80;;
57565;SDS011;63999;43.882;-0.310;2023-08-08T02:11:13;1.95;;;0.90;;
57565;SDS011;63999;43.882;-0.310;2023-08-08T02:13:39;3.97;;;0.85;;
57565;SDS011;63999;43.882;-0.310;2023-08-08T02:16:07;1.73;;;0.73;;
57565;SDS011;63999;43.882;-0.310;2023-08-08T02:18:33;1.35;;;0.63;;
57565;SDS011;63999;43.882;-0.310;2023-08-08T02:20:58;1.63;;;0.85;;
57565;SDS011;63999;43.882;-0.310;2023-08-08T02:23:24;1.05;;;0.70;;
57565;SDS011;63999;43.882;-0.310;2023-08-08T05:08:27;1.00;;;0.60;;
57565;SDS011;63999;43.882;-0.310;2023-08-08T05:11:08;2.28;;;0.77;;
57565;SDS011;63999;43.882;-0.310;2023-08-08T05:13:33;0.80;;;0.50;;
57565;SDS011;63999;43.882;-0.310;2023-08-08T05:15:59;2.03;;;0.50;;
57565;SDS011;63999;43.882;-0.310;2023-08-08T05:18:25;1.48;;;0.60;;
57565;SDS011;63999;43.882;-0.310;2023-08-08T05:20:51;1.45;;;0.70;;
57565;SDS011;63999;43.882;-0.310;2023-08-08T05:23:16;2.05;;;0.80;;
57565;SDS011;63999;43.882;-0.310;2023-08-08T05:25:42;0.55;;;0.40;;
57565;SDS011;63999;43.882;-0.310;2023-08-08T05:28:08;2.38;;;0.77;;
57565;SDS011;63999;43.882;-0.310;2023-08-08T05:30:34;3.72;;;0.70;;
57565;SDS011;63999;43.882;-0.310;2023-08-08T05:32:59;1.63;;;0.70;;
57565;SDS011;63999;43.882;-0.310;2023-08-08T05:35:25;0.75;;;0.52;;
57565;SDS011;63999;43.882;-0.310;2023-08-08T05:37:51;2.55;;;0.70;;
57565;SDS011;63999;43.882;-0.310;2023-08-08T05:40:17;0.80;;;0.50;;
57565;SDS011;63999;43.882;-0.310;2023-08-08T05:42:42;1.00;;;0.50;;
57565;SDS011;63999;43.882;-0.310;2023-08-08T05:45:08;2.40;;;0.65;;
57565;SDS011;63999;43.882;-0.310;2023-08-08T05:47:34;2.55;;;0.65;;
57565;SDS011;63999;43.882;-0.310;2023-08-08T05:50:00;2.30;;;0.70;;
57565;SDS011;63999;43.882;-0.310;2023-08-08T05:52:26;1.00;;;0.60;;
57565;SDS011;63999;43.882;-0.310;2023-08-08T05:54:51;2.65;;;0.60;;
57565;SDS011;63999;43.882;-0.310;2023-08-08T05:57:17;1.15;;;0.50;;
57565;SDS011;63999;43.882;-0.310;2023-08-08T05:59:43;1.17;;;0.60;;
57565;SDS011;63999;43.882;-0.310;2023-08-08T06:02:10;2.95;;;0.60;;
57565;SDS011;63999;43.882;-0.310;2023-08-08T06:04:35;2.75;;;0.75;;
57565;SDS011;63999;43.882;-0.310;2023-08-08T06:07:01;1.42;;;0.75;;
57565;SDS011;63999;43.882;-0.310;2023-08-08T06:09:27;2.08;;;0.65;;
57565;SDS011;63999;43.882;-0.310;2023-08-08T06:11:53;1.17;;;0.50;;
57565;SDS011;63999;43.882;-0.310;2023-08-08T06:14:19;1.33;;;0.80;;
57565;SDS011;63999;43.882;-0.310;2023-08-08T06:16:44;1.40;;;0.63;;
57565;SDS011;63999;43.882;-0.310;2023-08-08T06:19:11;2.13;;;0.70;;
57565;SDS011;63999;43.882;-0.310;2023-08-08T06:21:38;2.72;;;0.60;;
57565;SDS011;63999;43.882;-0.310;2023-08-08T06:24:04;0.80;;;0.57;;
57565;SDS011;63999;43.882;-0.310;2023-08-08T06:26:30;1.50;;;0.70;;
57565;SDS011;63999;43.882;-0.310;2023-08-08T06:28:56;3.13;;;0.70;;
57565;SDS011;63999;43.882;-0.310;2023-08-08T06:31:21;1.73;;;0.90;;
57565;SDS011;63999;43.882;-0.310;2023-08-08T06:33:47;3.72;;;0.70;;
57565;SDS011;63999;43.882;-0.310;2023-08-08T06:36:13;1.17;;;0.90;;
57565;SDS011;63999;43.882;-0.310;2023-08-08T06:38:39;2.03;;;0.90;;
57565;SDS011;63999;43.882;-0.310;2023-08-08T06:41:05;1.05;;;0.60;;
57565;SDS011;63999;43.882;-0.310;2023-08-08T06:43:31;0.93;;;0.63;;
57565;SDS011;63999;43.882;-0.310;2023-08-08T06:45:56;2.67;;;0.80;;
57565;SDS011;63999;43.882;-0.310;2023-08-08T06:48:22;1.35;;;0.65;;
57565;SDS011;63999;43.882;-0.310;2023-08-08T06:50:48;1.42;;;0.75;;
57565;SDS011;63999;43.882;-0.310;2023-08-08T06:53:14;3.75;;;0.90;;
57565;SDS011;63999;43.882;-0.310;2023-08-08T06:55:40;1.58;;;0.80;;
57565;SDS011;63999;43.882;-0.310;2023-08-08T06:58:06;1.80;;;0.90;;
57565;SDS011;63999;43.882;-0.310;2023-08-08T07:00:32;3.40;;;0.90;;
57565;SDS011;63999;43.882;-0.310;2023-08-08T07:02:57;2.05;;;0.80;;
57565;SDS011;63999;43.882;-0.310;2023-08-08T07:05:23;2.35;;;0.75;;
57565;SDS011;63999;43.882;-0.310;2023-08-08T07:07:50;2.05;;;0.90;;
57565;SDS011;63999;43.882;-0.310;2023-08-08T07:10:15;3.05;;;1.10;;
57565;SDS011;63999;43.882;-0.310;2023-08-08T07:12:41;1.65;;;0.88;;
57565;SDS011;63999;43.882;-0.310;2023-08-08T07:15:07;2.25;;;1.10;;
57565;SDS011;63999;43.882;-0.310;2023-08-08T07:17:33;2.58;;;1.10;;
57565;SDS011;63999;43.882;-0.310;2023-08-08T07:19:59;5.63;;;1.10;;
57565;SDS011;63999;43.882;-0.310;2023-08-08T07:22:25;4.30;;;0.80;;
57565;SDS011;63999;43.882;-0.310;2023-08-08T07:24:51;2.72;;;1.00;;
57565;SDS011;63999;43.882;-0.310;2023-08-08T07:27:17;2.45;;;0.77;;
57565;SDS011;63999;43.882;-0.310;2023-08-08T07:29:42;2.55;;;1.15;;
57565;SDS011;63999;43.882;-0.310;2023-08-08T07:32:08;6.78;;;1.08;;
57565;SDS011;63999;43.882;-0.310;2023-08-08T07:34:34;8.07;;;1.40;;
57565;SDS011;63999;43.882;-0.310;2023-08-08T07:37:00;2.55;;;1.00;;
57565;SDS011;63999;43.882;-0.310;2023-08-08T07:39:27;3.08;;;1.00;;
57565;SDS011;63999;43.882;-0.310;2023-08-08T07:41:53;3.38;;;1.00;;
57565;SDS011;63999;43.882;-0.310;2023-08-08T07:44:19;1.55;;;1.00;;
57565;SDS011;63999;43.882;-0.310;2023-08-08T07:46:45;2.13;;;1.08;;
57565;SDS011;63999;43.882;-0.310;2023-08-08T07:49:11;4.35;;;1.00;;
57565;SDS011;63999;43.882;-0.310;2023-08-08T07:51:38;2.10;;;0.88;;
57565;SDS011;63999;43.882;-0.310;2023-08-08T07:54:05;1.70;;;1.02;;
57565;SDS011;63999;43.882;-0.310;2023-08-08T07:56:33;1.65;;;0.70;;
57565;SDS011;63999;43.882;-0.310;2023-08-08T07:59:00;2.17;;;0.68;;
57565;SDS011;63999;43.882;-0.310;2023-08-08T08:01:26;2.45;;;0.90;;
57565;SDS011;63999;43.882;-0.310;2023-08-08T08:03:52;1.95;;;0.57;;
57565;SDS011;63999;43.882;-0.310;2023-08-08T08:06:19;2.60;;;0.80;;
57565;SDS011;63999;43.882;-0.310;2023-08-08T08:08:44;1.65;;;0.90;;
57565;SDS011;63999;43.882;-0.310;2023-08-08T08:11:10;1.40;;;0.70;;
57565;SDS011;63999;43.882;-0.310;2023-08-08T08:13:38;1.48;;;0.85;;
57565;SDS011;63999;43.882;-0.310;2023-08-08T08:16:04;2.30;;;0.90;;
57565;SDS011;63999;43.882;-0.310;2023-08-08T08:18:31;2.15;;;0.70;;
57565;SDS011;63999;43.882;-0.310;2023-08-08T08:20:58;2.63;;;1.08;;
57565;SDS011;63999;43.882;-0.310;2023-08-08T08:23:24;2.10;;;0.95;;
57565;SDS011;63999;43.882;-0.310;2023-08-08T08:25:50;1.42;;;0.60;;
57565;SDS011;63999;43.882;-0.310;2023-08-08T08:28:16;4.72;;;0.95;;
57565;SDS011;63999;43.882;-0.310;2023-08-08T08:30:42;1.83;;;0.98;;
57565;SDS011;63999;43.882;-0.310;2023-08-08T08:33:08;2.67;;;0.88;;
57565;SDS011;63999;43.882;-0.310;2023-08-08T08:35:35;2.40;;;0.98;;
57565;SDS011;63999;43.882;-0.310;2023-08-08T08:38:02;3.78;;;1.20;;
57565;SDS011;63999;43.882;-0.310;2023-08-08T08:40:28;2.35;;;1.20;;
57565;SDS011;63999;43.882;-0.310;2023-08-08T08:42:57;4.55;;;1.10;;
57565;SDS011;63999;43.882;-0.310;2023-08-08T08:45:23;2.17;;;0.90;;
57565;SDS011;63999;43.882;-0.310;2023-08-08T08:47:49;2.33;;;1.00;;
57565;SDS011;63999;43.882;-0.310;2023-08-08T08:50:20;2.50;;;1.10;;
57565;SDS011;63999;43.882;-0.310;2023-08-08T08:52:47;2.50;;;1.05;;
57565;SDS011;63999;43.882;-0.310;2023-08-08T08:55:14;2.83;;;1.15;;
57565;SDS011;63999;43.882;-0.310;2023-08-08T08:57:40;4.18;;;0.98;;
57565;SDS011;63999;43.882;-0.310;2023-08-08T09:00:06;5.95;;;2.47;;
57565;SDS011;63999;43.882;-0.310;2023-08-08T09:02:33;3.83;;;1.40;;
57565;SDS011;63999;43.882;-0.310;2023-08-08T09:04:59;2.78;;;0.93;;
57565;SDS011;63999;43.882;-0.310;2023-08-08T09:07:27;3.72;;;1.42;;
57565;SDS011;63999;43.882;-0.310;2023-08-08T09:09:55;1.45;;;1.02;;
57565;SDS011;63999;43.882;-0.310;2023-08-08T09:12:20;1.58;;;0.95;;
57565;SDS011;63999;43.882;-0.310;2023-08-08T09:14:48;2.20;;;0.90;;
57565;SDS011;63999;43.882;-0.310;2023-08-08T09:17:21;4.40;;;0.98;;
57565;SDS011;63999;43.882;-0.310;2023-08-08T09:19:46;3.13;;;1.33;;
57565;SDS011;63999;43.882;-0.310;2023-08-08T09:22:13;3.08;;;0.90;;
57565;SDS011;63999;43.882;-0.310;2023-08-08T09:24:42;2.08;;;1.15;;
57565;SDS011;63999;43.882;-0.310;2023-08-08T09:27:08;2.30;;;1.10;;
57565;SDS011;63999;43.882;-0.310;2023-08-08T09:29:38;6.10;;;1.27;;
57565;SDS011;63999;43.882;-0.310;2023-08-08T09:32:04;2.58;;;1.02;;
57565;SDS011;63999;43.882;-0.310;2023-08-08T09:34:31;2.45;;;0.68;;
57565;SDS011;63999;43.882;-0.310;2023-08-08T09:36:57;3.22;;;1.02;;
57565;SDS011;63999;43.882;-0.310;2023-08-08T09:39:25;4.68;;;1.23;;
57565;SDS011;63999;43.882;-0.310;2023-08-08T09:41:51;1.25;;;0.82;;
57565;SDS011;63999;43.882;-0.310;2023-08-08T09:44:17;3.20;;;1.27;;
57565;SDS011;63999;43.882;-0.310;2023-08-08T09:46:43;2.00;;;0.95;;
57565;SDS011;63999;43.882;-0.310;2023-08-08T09:49:11;4.57;;;1.20;;
57565;SDS011;63999;43.882;-0.310;2023-08-08T09:51:39;3.72;;;1.20;;
57565;SDS011;63999;43.882;-0.310;2023-08-08T09:54:05;8.38;;;1.80;;
57565;SDS011;63999;43.882;-0.310;2023-08-08T09:56:32;1.30;;;0.80;;
57565;SDS011;63999;43.882;-0.310;2023-08-08T09:58:59;2.90;;;1.17;;
57565;SDS011;63999;43.882;-0.310;2023-08-08T10:04:01;3.60;;;1.02;;
57565;SDS011;63999;43.882;-0.310;2023-08-08T10:06:31;4.32;;;1.33;;
57565;SDS011;63999;43.882;-0.310;2023-08-08T10:09:01;3.22;;;1.00;;
57565;SDS011;63999;43.882;-0.310;2023-08-08T10:11:28;1.17;;;0.90;;
57565;SDS011;63999;43.882;-0.310;2023-08-08T10:14:01;4.32;;;1.25;;
57565;SDS011;63999;43.882;-0.310;2023-08-08T10:16:27;3.95;;;0.95;;
57565;SDS011;63999;43.882;-0.310;2023-08-08T10:19:04;3.45;;;1.35;;
57565;SDS011;63999;43.882;-0.310;2023-08-08T10:21:40;5.45;;;1.33;;
57565;SDS011;63999;43.882;-0.310;2023-08-08T10:24:10;2.45;;;0.80;;
57565;SDS011;63999;43.882;-0.310;2023-08-08T10:26:52;1.70;;;1.00;;
57565;SDS011;63999;43.882;-0.310;2023-08-08T10:29:24;2.90;;;1.08;;
57565;SDS011;63999;43.882;-0.310;2023-08-08T10:31:52;2.92;;;1.13;;
57565;SDS011;63999;43.882;-0.310;2023-08-08T10:34:37;2.10;;;1.00;;
57565;SDS011;63999;43.882;-0.310;2023-08-08T10:37:14;1.30;;;0.80;;
57565;SDS011;63999;43.882;-0.310;2023-08-08T10:42:31;3.22;;;1.02;;
57565;SDS011;63999;43.882;-0.310;2023-08-08T10:45:04;1.63;;;0.82;;
57565;SDS011;63999;43.882;-0.310;2023-08-08T10:47:34;2.95;;;1.30;;
57565;SDS011;63999;43.882;-0.310;2023-08-08T10:50:06;2.55;;;1.25;;
57565;SDS011;63999;43.882;-0.310;2023-08-08T10:55:18;2.90;;;1.23;;
57565;SDS011;63999;43.882;-0.310;2023-08-08T10:58:13;2.55;;;1.27;;
57565;SDS011;63999;43.882;-0.310;2023-08-08T11:00:47;2.60;;;1.10;;
57565;SDS011;63999;43.882;-0.310;2023-08-08T11:03:16;5.40;;;2.25;;
57565;SDS011;63999;43.882;-0.310;2023-08-08T11:05:54;2.58;;;1.40;;
57565;SDS011;63999;43.882;-0.310;2023-08-08T11:08:24;9.35;;;2.05;;
57565;SDS011;63999;43.882;-0.310;2023-08-08T11:10:51;5.78;;;1.60;;
57565;SDS011;63999;43.882;-0.310;2023-08-08T11:13:18;2.85;;;1.20;;
57565;SDS011;63999;43.882;-0.310;2023-08-08T11:15:47;2.50;;;1.20;;
57565;SDS011;63999;43.882;-0.310;2023-08-08T11:18:15;4.30;;;1.10;;
57565;SDS011;63999;43.882;-0.310;2023-08-08T11:20:45;2.50;;;1.10;;
57565;SDS011;63999;43.882;-0.310;2023-08-08T11:23:17;4.38;;;1.48;;
57565;SDS011;63999;43.882;-0.310;2023-08-08T11:25:47;3.33;;;1.20;;
57565;SDS011;63999;43.882;-0.310;2023-08-08T11:28:17;2.35;;;0.95;;
57565;SDS011;63999;43.882;-0.310;2023-08-08T11:30:45;2.00;;;1.00;;
57565;SDS011;63999;43.882;-0.310;2023-08-08T11:33:15;3.38;;;1.40;;
57565;SDS011;63999;43.882;-0.310;2023-08-08T11:35:44;3.75;;;1.30;;
57565;SDS011;63999;43.882;-0.310;2023-08-08T11:38:20;4.45;;;1.20;;
57565;SDS011;63999;43.882;-0.310;2023-08-08T11:40:47;4.82;;;1.40;;
57565;SDS011;63999;43.882;-0.310;2023-08-08T11:43:22;4.47;;;1.45;;
57565;SDS011;63999;43.882;-0.310;2023-08-08T11:45:52;9.23;;;1.40;;
57565;SDS011;63999;43.882;-0.310;2023-08-08T11:48:20;10.73;;;1.70;;
57565;SDS011;63999;43.882;-0.310;2023-08-08T11:50:46;4.68;;;1.08;;
57565;SDS011;63999;43.882;-0.310;2023-08-08T11:53:18;2.25;;;1.10;;
57565;SDS011;63999;43.882;-0.310;2023-08-08T11:55:44;3.33;;;1.33;;
57565;SDS011;63999;43.882;-0.310;2023-08-08T11:58:18;1.42;;;0.90;;
57565;SDS011;63999;43.882;-0.310;2023-08-08T12:00:43;3.75;;;1.20;;
57565;SDS011;63999;43.882;-0.310;2023-08-08T12:03:15;4.68;;;1.35;;
57565;SDS011;63999;43.882;-0.310;2023-08-08T12:06:04;4.18;;;1.48;;
57565;SDS011;63999;43.882;-0.310;2023-08-08T12:08:42;2.90;;;1.35;;
57565;SDS011;63999;43.882;-0.310;2023-08-08T12:11:12;1.63;;;1.00;;
57565;SDS011;63999;43.882;-0.310;2023-08-08T12:13:43;4.55;;;1.50;;
57565;SDS011;63999;43.882;-0.310;2023-08-08T12:16:13;5.38;;;1.77;;
57565;SDS011;63999;43.882;-0.310;2023-08-08T12:18:43;2.53;;;1.42;;
57565;SDS011;63999;43.882;-0.310;2023-08-08T12:21:09;4.78;;;1.60;;
57565;SDS011;63999;43.882;-0.310;2023-08-08T12:23:39;5.72;;;1.60;;
57565;SDS011;63999;43.882;-0.310;2023-08-08T12:26:06;2.45;;;1.00;;
57565;SDS011;63999;43.882;-0.310;2023-08-08T12:28:33;4.38;;;1.38;;
57565;SDS011;63999;43.882;-0.310;2023-08-08T12:30:59;3.78;;;1.75;;
57565;SDS011;63999;43.882;-0.310;2023-08-08T12:33:26;2.53;;;1.27;;
57565;SDS011;63999;43.882;-0.310;2023-08-08T12:35:54;3.17;;;1.48;;
57565;SDS011;63999;43.882;-0.310;2023-08-08T12:38:20;1.95;;;1.20;;
57565;SDS011;63999;43.882;-0.310;2023-08-08T12:40:47;2.65;;;1.40;;
57565;SDS011;63999;43.882;-0.310;2023-08-08T12:43:18;2.28;;;1.00;;
57565;SDS011;63999;43.882;-0.310;2023-08-08T12:45:53;2.85;;;1.60;;
57565;SDS011;63999;43.882;-0.310;2023-08-08T12:48:21;4.22;;;1.45;;
57565;SDS011;63999;43.882;-0.310;2023-08-08T12:50:47;3.00;;;1.23;;
57565;SDS011;63999;43.882;-0.310;2023-08-08T12:53:13;1.80;;;0.95;;
57565;SDS011;63999;43.882;-0.310;2023-08-08T12:55:43;2.17;;;1.20;;
57565;SDS011;63999;43.882;-0.310;2023-08-08T12:58:13;2.55;;;1.13;;
57565;SDS011;63999;43.882;-0.310;2023-08-08T13:00:42;3.78;;;1.30;;
57565;SDS011;63999;43.882;-0.310;2023-08-08T13:03:14;5.22;;;1.70;;
57565;SDS011;63999;43.882;-0.310;2023-08-08T13:05:42;2.67;;;1.40;;
57565;SDS011;63999;43.882;-0.310;2023-08-08T13:08:08;3.17;;;1.15;;
57565;SDS011;63999;43.882;-0.310;2023-08-08T13:10:38;4.00;;;1.58;;
57565;SDS011;63999;43.882;-0.310;2023-08-08T13:13:07;2.33;;;1.20;;
57565;SDS011;63999;43.882;-0.310;2023-08-08T13:15:33;1.55;;;1.10;;
57565;SDS011;63999;43.882;-0.310;2023-08-08T13:18:02;2.67;;;1.40;;
57565;SDS011;63999;43.882;-0.310;2023-08-08T13:20:28;2.60;;;1.10;;
57565;SDS011;63999;43.882;-0.310;2023-08-08T13:22:56;4.00;;;1.58;;
57565;SDS011;63999;43.882;-0.310;2023-08-08T13:25:22;3.95;;;1.63;;
57565;SDS011;63999;43.882;-0.310;2023-08-08T13:27:56;3.00;;;1.30;;
57565;SDS011;63999;43.882;-0.310;2023-08-08T13:30:23;3.03;;;1.35;;
57565;SDS011;63999;43.882;-0.310;2023-08-08T13:32:52;3.38;;;1.50;;
57565;SDS011;63999;43.882;-0.310;2023-08-08T13:35:37;4.13;;;1.75;;
57565;SDS011;63999;43.882;-0.310;2023-08-08T13:38:08;1.30;;;0.85;;
57565;SDS011;63999;43.882;-0.310;2023-08-08T13:40:40;5.00;;;1.35;;
57565;SDS011;63999;43.882;-0.310;2023-08-08T13:43:11;3.17;;;1.25;;
57565;SDS011;63999;43.882;-0.310;2023-08-08T13:45:41;2.35;;;1.05;;
57565;SDS011;63999;43.882;-0.310;2023-08-08T13:48:13;2.28;;;1.20;;
57565;SDS011;63999;43.882;-0.310;2023-08-08T13:50:41;2.38;;;1.33;;
57565;SDS011;63999;43.882;-0.310;2023-08-08T13:53:09;4.38;;;1.55;;
57565;SDS011;63999;43.882;-0.310;2023-08-08T13:55:37;3.35;;;1.20;;
57565;SDS011;63999;43.882;-0.310;2023-08-08T13:58:07;3.90;;;1.52;;
57565;SDS011;63999;43.882;-0.310;2023-08-08T14:00:36;3.72;;;1.25;;
57565;SDS011;63999;43.882;-0.310;2023-08-08T14:03:04;5.85;;;1.80;;
57565;SDS011;63999;43.882;-0.310;2023-08-08T14:05:30;3.28;;;1.15;;
57565;SDS011;63999;43.882;-0.310;2023-08-08T14:07:59;3.72;;;1.42;;
57565;SDS011;63999;43.882;-0.310;2023-08-08T14:10:25;6.93;;;1.73;;
57565;SDS011;63999;43.882;-0.310;2023-08-08T14:12:51;2.42;;;1.30;;
57565;SDS011;63999;43.882;-0.310;2023-08-08T14:15:23;2.05;;;1.20;;
57565;SDS011;63999;43.882;-0.310;2023-08-08T14:17:49;5.85;;;1.63;;
57565;SDS011;63999;43.882;-0.310;2023-08-08T14:20:18;2.70;;;1.20;;
57565;SDS011;63999;43.882;-0.310;2023-08-08T14:22:44;4.88;;;1.58;;
57565;SDS011;63999;43.882;-0.310;2023-08-08T14:25:14;1.75;;;1.05;;
57565;SDS011;63999;43.882;-0.310;2023-08-08T14:27:42;2.22;;;1.20;;
57565;SDS011;63999;43.882;-0.310;2023-08-08T14:30:11;2.30;;;1.52;;
57565;SDS011;63999;43.882;-0.310;2023-08-08T14:32:37;3.38;;;1.65;;
57565;SDS011;63999;43.882;-0.310;2023-08-08T14:35:03;2.50;;;1.15;;
57565;SDS011;63999;43.882;-0.310;2023-08-08T14:37:34;2.70;;;1.60;;
57565;SDS011;63999;43.882;-0.310;2023-08-08T14:40:03;3.35;;;1.33;;
57565;SDS011;63999;43.882;-0.310;2023-08-08T14:42:36;3.22;;;1.30;;
57565;SDS011;63999;43.882;-0.310;2023-08-08T14:45:04;2.25;;;1.33;;
57565;SDS011;63999;43.882;-0.310;2023-08-08T14:47:36;6.82;;;2.17;;
57565;SDS011;63999;43.882;-0.310;2023-08-08T14:50:05;3.50;;;1.55;;
57565;SDS011;63999;43.882;-0.310;2023-08-08T14:52:31;1.60;;;1.00;;
57565;SDS011;63999;43.882;-0.310;2023-08-08T14:54:57;3.33;;;1.40;;
57565;SDS011;63999;43.882;-0.310;2023-08-08T14:57:23;4.13;;;1.42;;
57565;SDS011;63999;43.882;-0.310;2023-08-08T14:59:52;2.55;;;1.40;;
57565;SDS011;63999;43.882;-0.310;2023-08-08T15:02:23;2.17;;;1.20;;
57565;SDS011;63999;43.882;-0.310;2023-08-08T15:04:52;3.67;;;1.45;;
57565;SDS011;63999;43.882;-0.310;2023-08-08T15:07:20;3.13;;;1.35;;
57565;SDS011;63999;43.882;-0.310;2023-08-08T15:09:47;2.45;;;1.20;;
57565;SDS011;63999;43.882;-0.310;2023-08-08T15:12:16;2.83;;;1.25;;
57565;SDS011;63999;43.882;-0.310;2023-08-08T15:14:43;1.80;;;1.20;;
57565;SDS011;63999;43.882;-0.310;2023-08-08T15:17:13;2.70;;;1.10;;
57565;SDS011;63999;43.882;-0.310;2023-08-08T15:19:45;1.98;;;1.27;;
57565;SDS011;63999;43.882;-0.310;2023-08-08T15:22:13;2.17;;;1.27;;
57565;SDS011;63999;43.882;-0.310;2023-08-08T15:24:44;2.40;;;1.30;;
57565;SDS011;63999;43.882;-0.310;2023-08-08T15:27:12;2.20;;;1.40;;
57565;SDS011;63999;43.882;-0.310;2023-08-08T15:29:38;2.53;;;1.25;;
57565;SDS011;63999;43.882;-0.310;2023-08-08T15:32:07;3.05;;;1.27;;
57565;SDS011;63999;43.882;-0.310;2023-08-08T15:34:42;2.58;;;1.10;;
57565;SDS011;63999;43.882;-0.310;2023-08-08T15:37:09;2.97;;;1.20;;
57565;SDS011;63999;43.882;-0.310;2023-08-08T15:39:38;2.03;;;1.20;;
57565;SDS011;63999;43.882;-0.310;2023-08-08T15:42:09;3.47;;;1.42;;
57565;SDS011;63999;43.882;-0.310;2023-08-08T15:44:40;2.22;;;1.30;;
57565;SDS011;63999;43.882;-0.310;2023-08-08T15:47:09;2.60;;;1.60;;
57565;SDS011;63999;43.882;-0.310;2023-08-08T15:49:36;3.88;;;1.77;;
57565;SDS011;63999;43.882;-0.310;2023-08-08T15:52:05;3.13;;;1.48;;
57565;SDS011;63999;43.882;-0.310;2023-08-08T15:54:31;2.65;;;1.67;;
57565;SDS011;63999;43.882;-0.310;2023-08-08T15:57:00;3.00;;;1.33;;
57565;SDS011;63999;43.882;-0.310;2023-08-08T15:59:33;2.25;;;1.30;;
57565;SDS011;63999;43.882;-0.310;2023-08-08T16:02:05;3.05;;;1.30;;
57565;SDS011;63999;43.882;-0.310;2023-08-08T16:04:31;2.58;;;1.23;;
57565;SDS011;63999;43.882;-0.310;2023-08-08T16:07:03;2.40;;;1.50;;
57565;SDS011;63999;43.882;-0.310;2023-08-08T16:09:32;3.22;;;1.42;;
57565;SDS011;63999;43.882;-0.310;2023-08-08T16:12:01;2.67;;;1.40;;
57565;SDS011;63999;43.882;-0.310;2023-08-08T16:14:27;2.47;;;1.70;;
57565;SDS011;63999;43.882;-0.310;2023-08-08T16:16:55;4.57;;;1.33;;
57565;SDS011;63999;43.882;-0.310;2023-08-08T16:19:34;2.65;;;1.33;;
57565;SDS011;63999;43.882;-0.310;2023-08-08T16:24:30;2.58;;;0.90;;
57565;SDS011;63999;43.882;-0.310;2023-08-08T16:27:01;2.67;;;1.10;;
57565;SDS011;63999;43.882;-0.310;2023-08-08T16:29:31;1.63;;;1.13;;
57565;SDS011;63999;43.882;-0.310;2023-08-08T16:31:56;2.10;;;1.23;;
57565;SDS011;63999;43.882;-0.310;2023-08-08T16:34:25;4.30;;;1.67;;
57565;SDS011;63999;43.882;-0.310;2023-08-08T16:36:53;2.28;;;1.20;;
57565;SDS011;63999;43.882;-0.310;2023-08-08T16:39:22;5.32;;;1.60;;
57565;SDS011;63999;43.882;-0.310;2023-08-08T16:41:48;2.30;;;1.20;;
57565;SDS011;63999;43.882;-0.310;2023-08-08T16:44:14;2.22;;;1.50;;
57565;SDS011;63999;43.882;-0.310;2023-08-08T16:46:40;2.05;;;1.33;;
57565;SDS011;63999;43.882;-0.310;2023-08-08T16:49:16;2.08;;;1.20;;
57565;SDS011;63999;43.882;-0.310;2023-08-08T16:51:41;2.72;;;1.30;;
57565;SDS011;63999;43.882;-0.310;2023-08-08T16:54:08;3.10;;;1.38;;
57565;SDS011;63999;43.882;-0.310;2023-08-08T16:56:38;3.38;;;1.50;;
57565;SDS011;63999;43.882;-0.310;2023-08-08T16:59:04;3.45;;;1.70;;
57565;SDS011;63999;43.882;-0.310;2023-08-08T17:01:32;1.92;;;1.10;;
57565;SDS011;63999;43.882;-0.310;2023-08-08T17:04:00;1.45;;;1.00;;
57565;SDS011;63999;43.882;-0.310;2023-08-08T17:06:29;1.75;;;1.13;;
57565;SDS011;63999;43.882;-0.310;2023-08-08T17:08:57;2.53;;;1.10;;
57565;SDS011;63999;43.882;-0.310;2023-08-08T17:11:27;1.50;;;1.10;;
57565;SDS011;63999;43.882;-0.310;2023-08-08T17:13:56;4.05;;;1.40;;
57565;SDS011;63999;43.882;-0.310;2023-08-08T17:16:33;2.38;;;1.05;;
57565;SDS011;63999;43.882;-0.310;2023-08-08T17:19:10;4.03;;;1.40;;
57565;SDS011;63999;43.882;-0.310;2023-08-08T17:21:38;2.53;;;1.20;;
57565;SDS011;63999;43.882;-0.310;2023-08-08T17:24:04;2.22;;;1.23;;
57565;SDS011;63999;43.882;-0.310;2023-08-08T17:26:33;2.35;;;1.15;;
57565;SDS011;63999;43.882;-0.310;2023-08-08T17:29:00;2.17;;;1.23;;
57565;SDS011;63999;43.882;-0.310;2023-08-08T17:31:26;3.10;;;1.45;;
57565;SDS011;63999;43.882;-0.310;2023-08-08T17:34:00;1.67;;;1.30;;
57565;SDS011;63999;43.882;-0.310;2023-08-08T17:36:29;2.63;;;1.52;;